Aérodrome :
LOGIN :

S'inscrire | Disclaimer

   EN    FR    IT 

 










Légende :    VFR   VFR Marginal   IFR   IFR Intensif   IFR Très Intensif
Visi : 
Plafond : 
>= 8 km
>= 3000ft
5 à 8 km
1000 à 3000 ft
1500m à 5 km
500 à 1000 ft
800 à 1500m
200 à 500 ft
< 800m
< 200 ft
Symboles :   Orages  Brouillard  Fortes neiges  Fortes précipitations  Vent > 20 kt
SIGMETs :   Divers  Orages  Givrage  Turbulence  Onde Orograph.  Cendres Volcan.






- Altitude de l'aérodrome : 26 ft
- Code IATA : BIA


LFKB - Bastia

DERNIER METAR :
  • 170530Z AUTO 22007KT CAVOK 14/09 Q1019 NOSIG

METARs EXPIRÉS :
  • 170500Z AUTO 22007KT CAVOK 14/09 Q1019 NOSIG
  • 170430Z AUTO 22008KT CAVOK 15/09 Q1019 NOSIG
  • 170400Z AUTO 23008KT CAVOK 14/09 Q1019 NOSIG
  • 170330Z AUTO 22007KT CAVOK 14/09 Q1019 NOSIG
  • 170300Z AUTO 23007KT CAVOK 14/09 Q1019 NOSIG

TAF TAF LFKB
Valide du 17 à 03h jusqu'au 18 à 03h UTC


170200Z 1703/1803 23004KT 9999 FEW030 TX22/1711Z TN14/1704Z
TEMPO 1710/1715 14010KT
ATIS : +33 4 95 59 19 40



MET'MAP, la Météo Aéronautique d'un coup d'oeil ! - Copyright ORBIFLY Décembre 2007 - Disclaimer

ORBIFLY MET'MAP TEAM :

Programmation & Développement : Alexandra Zaïnal
Conception & Développement : Baudouin d'Aumeries
Co-Programmation & Développement : Marc-Olivier Méhu
Soutien technique & logistique : Manuel Goepfert

Contact : metmap@orbifly.com




SOURCES & CREDITS :

   NOAA